Terminal Aerodrome Forecast
Issued by NWS Austin/San Antonio, TX

Home | Current Version | Previous Version | Text Only | Print | Product List | Glossary On
Versions: 1 2 3 4 5 6 7 8 9 10 11 12 13
595
FTUS44 KEWX 091723
TAFSAT
TAF
KSAT 091723Z 0918/1024 32009KT P6SM SKC
     FM100400 VRB03KT P6SM SKC
     FM101500 22011KT P6SM SKC=

USA.gov is the U.S. government's official web portal to all federal, state and local government web resources and services.